Time;durP1;ratioP1;P1;durP2;ratioP2;P2;SDS_P1;SDS_P2;PMS_P1;PMS_P2;Temp;Humidity;BMP_temperature;BMP_pressure;BME280_temperature;BME280_humidity;BME280_pressure;Samples;Min_cycle;Max_cycle;Signal;HPM_P1;HPM_P2
2022/01/30 00:01:37;;;;;;;20.43;3.73;;;6.80;99.90;;;;;;5053212;28;20545;-85
2022/01/30 00:04:03;;;;;;;11.97;3.20;;;6.80;99.90;;;;;;5053104;28;20286;-84
2022/01/30 00:06:28;;;;;;;23.27;4.10;;;6.80;99.90;;;;;;5035266;28;20618;-83
2022/01/30 00:08:54;;;;;;;13.43;2.60;;;6.80;99.90;;;;;;5053237;28;20669;-84
2022/01/30 00:11:23;;;;;;;22.83;3.40;;;6.80;99.90;;;;;;5053248;28;20162;-83
2022/01/30 00:13:50;;;;;;;17.50;3.90;;;6.70;99.90;;;;;;5053180;28;20261;-84
2022/01/30 00:16:18;;;;;;;25.67;5.17;;;6.60;99.90;;;;;;5035292;28;20423;-83
2022/01/30 00:18:58;;;;;;;23.77;4.10;;;6.50;99.90;;;;;;5052554;28;20920;-83
2022/01/30 00:21:34;;;;;;;16.80;5.40;;;6.60;99.90;;;;;;5053114;28;20412;-85
2022/01/30 00:24:46;;;;;;;27.03;4.43;;;6.40;99.90;;;;;;5052930;28;20510;-84
2022/01/30 00:26:50;;;;;;;25.03;6.37;;;6.10;99.90;;;;;;5050058;28;20517;-86
2022/01/30 00:29:15;;;;;;;18.80;4.90;;;6.10;99.90;;;;;;5053727;28;20422;-86
2022/01/30 00:31:42;;;;;;;14.77;3.60;;;6.10;99.90;;;;;;5053545;28;20490;-85
2022/01/30 00:34:08;;;;;;;18.60;3.97;;;6.20;99.90;;;;;;5053935;28;20169;-85
2022/01/30 00:36:33;;;;;;;17.43;3.53;;;6.30;99.90;;;;;;5054489;28;20421;-85
2022/01/30 00:38:59;;;;;;;21.37;4.00;;;6.20;99.90;;;;;;5054309;28;20174;-84
2022/01/30 00:41:25;;;;;;;18.30;4.03;;;6.20;99.90;;;;;;5054105;28;20266;-84
2022/01/30 00:43:50;;;;;;;25.30;4.77;;;6.10;99.90;;;;;;5062793;28;20220;-83
2022/01/30 00:46:17;;;;;;;21.17;4.67;;;6.20;99.90;;;;;;5053919;28;20437;-85
2022/01/30 00:48:43;;;;;;;17.23;4.00;;;6.30;99.90;;;;;;5033067;28;20444;-84
2022/01/30 00:51:08;;;;;;;17.43;5.17;;;6.40;99.90;;;;;;5045574;28;20537;-83
2022/01/30 00:53:34;;;;;;;12.67;3.80;;;6.40;99.90;;;;;;5053082;28;20194;-83
2022/01/30 00:55:59;;;;;;;17.27;3.93;;;6.40;99.90;;;;;;5034458;28;20190;-85
2022/01/30 00:58:25;;;;;;;21.83;4.17;;;6.10;99.90;;;;;;5034825;28;20545;-83
2022/01/30 01:00:50;;;;;;;21.30;4.00;;;5.90;99.90;;;;;;5033141;28;20170;-86
2022/01/30 01:03:17;;;;;;;17.30;3.67;;;5.90;99.90;;;;;;5032659;28;20206;-85
2022/01/30 01:05:43;;;;;;;20.83;4.93;;;5.80;99.90;;;;;;5041500;28;20541;-85
2022/01/30 01:08:27;;;;;;;18.93;3.43;;;5.90;99.90;;;;;;5052779;28;20455;-84
2022/01/30 01:11:00;;;;;;;23.77;5.47;;;6.20;99.90;;;;;;5053005;28;20174;-84
2022/01/30 01:24:04;;;;;;;14.83;2.70;;;5.30;99.90;;;;;;5052502;28;20474;-85
2022/01/30 01:26:30;;;;;;;11.50;3.10;;;5.30;99.90;;;;;;5052596;28;20408;-85
2022/01/30 01:28:56;;;;;;;15.87;2.80;;;5.50;99.90;;;;;;5034927;28;20931;-85
2022/01/30 01:31:22;;;;;;;14.53;2.57;;;5.50;99.90;;;;;;5052647;28;20415;-84
2022/01/30 01:36:20;;;;;;;15.00;3.17;;;5.60;99.90;;;;;;5052841;28;20434;-86
2022/01/30 01:38:46;;;;;;;15.43;4.23;;;5.70;99.90;;;;;;5034729;28;20424;-86
2022/01/30 01:41:14;;;;;;;18.73;3.70;;;6.00;99.90;;;;;;5034809;28;20175;-86
2022/01/30 01:43:40;;;;;;;19.83;3.10;;;6.00;99.90;;;;;;5052560;28;20201;-85
2022/01/30 01:46:13;;;;;;;16.13;2.83;;;6.00;99.90;;;;;;5052496;28;20773;-86
2022/01/30 01:48:39;;;;;;;19.23;3.67;;;6.10;99.90;;;;;;5034403;28;20181;-86
2022/01/30 01:51:07;;;;;;;16.30;3.57;;;6.10;99.90;;;;;;5052657;28;20410;-86
2022/01/30 01:53:33;;;;;;;17.20;3.23;;;6.20;99.90;;;;;;5052579;28;20619;-86
2022/01/30 01:55:59;;;;;;;18.37;4.10;;;6.10;99.90;;;;;;5052534;28;20415;-83
2022/01/30 01:58:26;;;;;;;11.50;2.40;;;6.10;99.90;;;;;;5052419;28;20421;-84
2022/01/30 02:00:52;;;;;;;16.70;3.50;;;6.10;99.90;;;;;;5034470;28;20953;-84
2022/01/30 02:03:19;;;;;;;12.83;3.23;;;6.10;99.90;;;;;;5038226;28;20540;-86
2022/01/30 02:05:54;;;;;;;15.63;2.90;;;6.10;99.90;;;;;;5056795;28;20759;-84
2022/01/30 02:08:42;;;;;;;11.23;2.70;;;6.10;99.90;;;;;;5123365;22;20496;-84
2022/01/30 02:24:46;;;;;;;11.37;2.17;;;6.20;99.90;;;;;;5056317;28;20474;-85
2022/01/30 02:27:19;;;;;;;16.63;4.50;;;5.80;99.90;;;;;;5056496;28;20420;-88
2022/01/30 02:29:45;;;;;;;16.57;3.00;;;5.70;99.90;;;;;;5045213;28;20451;-83
2022/01/30 02:32:11;;;;;;;22.17;3.90;;;5.70;99.90;;;;;;5026901;28;20436;-86
2022/01/30 02:34:36;;;;;;;22.97;5.77;;;5.60;99.90;;;;;;5056417;28;20465;-86
2022/01/30 02:37:03;;;;;;;18.30;4.17;;;5.60;99.90;;;;;;5055903;28;20269;-84
2022/01/30 02:39:29;;;;;;;20.43;6.40;;;5.70;99.90;;;;;;5055944;28;20641;-85
2022/01/30 02:41:55;;;;;;;20.13;4.07;;;5.90;99.90;;;;;;5055899;28;20432;-86
2022/01/30 02:44:46;;;;;;;20.07;3.53;;;5.90;99.90;;;;;;5055787;28;20220;-87
2022/01/30 02:47:23;;;;;;;29.50;6.17;;;5.90;99.90;;;;;;5055413;28;20419;-85
2022/01/30 02:52:35;;;;;;;19.23;4.90;;;5.80;99.90;;;;;;5055771;28;20407;-85
2022/01/30 02:55:01;;;;;;;15.70;3.23;;;5.60;99.90;;;;;;5055660;28;20442;-86
2022/01/30 02:57:27;;;;;;;27.83;4.70;;;5.70;99.90;;;;;;5055589;28;20408;-86
2022/01/30 02:59:52;;;;;;;21.80;4.10;;;5.70;99.90;;;;;;5055505;28;20443;-88
2022/01/30 03:02:18;;;;;;;17.73;2.87;;;5.80;99.90;;;;;;5055546;28;20203;-87
2022/01/30 03:04:43;;;;;;;12.37;2.87;;;5.80;99.90;;;;;;5037829;28;20223;-86
2022/01/30 03:07:09;;;;;;;10.83;2.40;;;5.80;99.90;;;;;;5055672;28;20173;-86
2022/01/30 03:09:35;;;;;;;12.90;3.37;;;5.80;99.90;;;;;;5055471;28;20244;-87
2022/01/30 03:12:01;;;;;;;17.70;4.80;;;5.70;99.90;;;;;;5055565;28;20248;-86
2022/01/30 03:14:27;;;;;;;16.57;6.40;;;5.70;99.90;;;;;;5054694;28;20854;-85
2022/01/30 03:16:53;;;;;;;19.13;5.40;;;5.70;99.90;;;;;;5054944;28;20503;-87
2022/01/30 03:19:19;;;;;;;16.77;4.27;;;5.80;99.90;;;;;;5055537;28;20181;-87
2022/01/30 03:21:45;;;;;;;23.67;3.93;;;5.90;99.90;;;;;;5055303;28;20504;-86
2022/01/30 03:24:10;;;;;;;19.53;3.97;;;6.00;99.90;;;;;;5055143;28;20244;-87
2022/01/30 03:26:39;;;;;;;20.20;4.70;;;6.00;99.90;;;;;;5055383;28;20253;-86
2022/01/30 03:29:06;;;;;;;17.73;5.63;;;5.90;99.90;;;;;;5055245;28;20223;-86
2022/01/30 03:31:34;;;;;;;17.53;3.47;;;5.90;99.90;;;;;;5055110;28;20419;-84
2022/01/30 03:33:59;;;;;;;13.07;4.20;;;5.90;99.90;;;;;;5054922;28;20421;-87
2022/01/30 03:36:25;;;;;;;18.97;4.80;;;5.80;99.90;;;;;;5055260;28;20415;-87
2022/01/30 03:38:50;;;;;;;16.00;5.97;;;5.70;99.90;;;;;;5055167;28;20177;-88
2022/01/30 03:41:16;;;;;;;14.63;4.50;;;5.80;99.90;;;;;;5054949;28;20181;-86
2022/01/30 03:43:41;;;;;;;23.83;4.23;;;5.90;99.90;;;;;;5055163;28;20217;-87
2022/01/30 03:46:07;;;;;;;15.40;3.07;;;5.90;99.90;;;;;;5036544;28;20597;-89
2022/01/30 03:48:32;;;;;;;18.03;4.17;;;5.80;99.90;;;;;;5055042;28;20166;-87
2022/01/30 03:50:58;;;;;;;12.07;3.57;;;5.90;99.90;;;;;;5055077;28;20533;-90
2022/01/30 03:53:23;;;;;;;19.83;3.90;;;5.90;99.90;;;;;;5054459;28;20541;-87
2022/01/30 03:55:49;;;;;;;27.30;4.20;;;5.90;99.90;;;;;;5054722;28;20170;-89
2022/01/30 03:58:14;;;;;;;12.33;4.10;;;5.90;99.90;;;;;;5054599;28;20176;-86
2022/01/30 04:00:40;;;;;;;20.03;3.67;;;5.90;99.90;;;;;;5036894;28;20184;-88
2022/01/30 04:03:06;;;;;;;20.33;5.33;;;5.90;99.90;;;;;;5054315;28;20291;-87
2022/01/30 04:05:31;;;;;;;11.17;2.67;;;5.90;99.90;;;;;;5036638;28;20193;-88
2022/01/30 04:08:02;;;;;;;20.60;3.13;;;5.80;99.90;;;;;;5054195;28;20234;-86
2022/01/30 04:10:29;;;;;;;19.10;3.20;;;5.70;99.90;;;;;;5054566;28;20177;-92
2022/01/30 04:12:55;;;;;;;14.97;2.67;;;5.80;99.90;;;;;;5036785;28;20427;-87
2022/01/30 04:15:21;;;;;;;13.33;2.67;;;5.70;99.90;;;;;;5054145;28;20778;-87
2022/01/30 04:17:46;;;;;;;17.87;3.43;;;5.60;99.90;;;;;;5034142;28;20277;-85
2022/01/30 04:20:12;;;;;;;10.63;2.50;;;5.50;99.90;;;;;;5016398;28;20194;-85
2022/01/30 04:22:38;;;;;;;17.23;3.30;;;5.70;99.90;;;;;;5034193;28;20171;-86
2022/01/30 04:25:04;;;;;;;13.50;2.77;;;5.80;99.90;;;;;;5033917;28;20453;-82
2022/01/30 04:27:29;;;;;;;21.73;5.63;;;5.80;99.90;;;;;;5034092;28;20170;-83
2022/01/30 04:29:55;;;;;;;22.50;3.30;;;5.90;99.90;;;;;;5034038;28;20170;-88
2022/01/30 04:32:21;;;;;;;18.47;4.00;;;5.90;99.90;;;;;;5033845;28;20536;-87
2022/01/30 04:34:54;;;;;;;17.10;3.30;;;5.90;99.90;;;;;;5034163;28;20256;-82
2022/01/30 04:37:29;;;;;;;17.53;3.17;;;5.90;99.90;;;;;;5033875;28;20474;-85
2022/01/30 04:53:35;;;;;;;19.33;2.43;;;6.10;99.90;;;;;;5034090;28;20411;-85
2022/01/30 04:56:44;;;;;;;15.57;3.10;;;6.10;99.90;;;;;;5015810;28;20425;-88
2022/01/30 05:01:39;;;;;;;15.87;4.30;;;6.10;99.90;;;;;;5033218;28;20935;-87
2022/01/30 05:09:27;;;;;;;27.17;5.03;;;6.10;99.90;;;;;;5032950;28;20475;-84
2022/01/30 05:11:54;;;;;;;18.63;4.73;;;6.10;99.90;;;;;;5015582;28;20421;-87
2022/01/30 05:14:22;;;;;;;14.00;3.63;;;6.10;99.90;;;;;;5033385;28;20463;-87
2022/01/30 05:16:48;;;;;;;16.20;4.07;;;6.10;99.90;;;;;;5032996;28;20500;-85
2022/01/30 05:19:14;;;;;;;21.27;4.90;;;6.00;99.90;;;;;;5033229;28;20485;-87
2022/01/30 05:21:40;;;;;;;21.97;4.93;;;6.00;99.90;;;;;;5033143;28;20397;-83
2022/01/30 05:24:06;;;;;;;20.90;5.13;;;6.00;99.90;;;;;;5033228;28;20965;-84
2022/01/30 05:26:32;;;;;;;13.97;3.37;;;6.10;99.90;;;;;;5033271;28;20409;-87
2022/01/30 05:28:58;;;;;;;12.87;3.33;;;6.10;99.90;;;;;;5033592;28;20421;-88
2022/01/30 05:31:24;;;;;;;22.10;4.23;;;6.10;99.90;;;;;;5034445;28;20525;-84
2022/01/30 05:33:50;;;;;;;18.43;4.23;;;6.00;99.90;;;;;;5033153;28;20448;-87
2022/01/30 05:36:16;;;;;;;18.50;4.40;;;6.00;99.90;;;;;;5032461;28;20178;-87
2022/01/30 05:38:42;;;;;;;20.77;4.70;;;6.10;99.90;;;;;;5015302;28;20436;-87
2022/01/30 05:41:08;;;;;;;22.33;5.13;;;6.00;99.90;;;;;;5015217;28;20913;-88
2022/01/30 05:43:34;;;;;;;16.03;4.83;;;6.00;99.90;;;;;;5033026;28;20241;-87
2022/01/30 05:46:11;;;;;;;15.03;2.73;;;5.90;99.90;;;;;;5032500;28;20762;-87
2022/01/30 05:48:37;;;;;;;12.57;3.50;;;5.90;99.90;;;;;;5032940;28;20417;-86
2022/01/30 05:51:03;;;;;;;11.73;2.73;;;5.90;99.90;;;;;;5032875;28;20413;-82
2022/01/30 05:53:28;;;;;;;18.73;3.63;;;5.90;99.90;;;;;;5032931;28;20224;-85
2022/01/30 05:55:54;;;;;;;19.63;3.67;;;5.90;99.90;;;;;;5014985;28;20182;-84
2022/01/30 05:58:19;;;;;;;17.70;4.53;;;6.00;99.90;;;;;;5032662;28;20170;-86
2022/01/30 06:00:45;;;;;;;20.70;3.80;;;6.00;99.90;;;;;;5032263;28;20174;-82
2022/01/30 06:03:10;;;;;;;14.80;3.63;;;5.90;99.90;;;;;;5032274;28;20235;-85
2022/01/30 06:05:36;;;;;;;13.03;2.63;;;5.90;99.90;;;;;;5014334;28;20552;-89
2022/01/30 06:08:11;;;;;;;13.83;3.77;;;5.90;99.90;;;;;;5014377;28;20464;-84
2022/01/30 06:10:37;;;;;;;27.63;4.40;;;5.80;99.90;;;;;;5032415;28;20174;-84
2022/01/30 06:13:02;;;;;;;24.33;4.03;;;5.80;99.90;;;;;;5032560;28;20420;-84
2022/01/30 06:15:28;;;;;;;18.00;3.33;;;5.80;99.90;;;;;;5032391;28;20198;-85
2022/01/30 06:17:53;;;;;;;20.00;4.47;;;5.80;99.90;;;;;;5032026;28;20177;-84
2022/01/30 06:20:19;;;;;;;23.30;3.80;;;5.90;99.90;;;;;;5032557;28;20171;-86
2022/01/30 06:22:44;;;;;;;19.17;3.97;;;5.80;99.90;;;;;;5032159;28;20179;-84
2022/01/30 06:25:10;;;;;;;19.70;3.70;;;5.80;99.90;;;;;;5032455;28;20190;-86
2022/01/30 06:27:36;;;;;;;14.83;3.37;;;5.80;99.90;;;;;;5014756;28;20627;-85
2022/01/30 06:30:04;;;;;;;16.47;3.60;;;5.80;99.90;;;;;;5032131;28;20180;-85
2022/01/30 06:32:30;;;;;;;19.63;4.80;;;5.70;99.90;;;;;;5039026;28;20633;-87
2022/01/30 06:34:55;;;;;;;11.23;2.60;;;5.70;99.90;;;;;;5052436;28;20511;-85
2022/01/30 06:37:21;;;;;;;20.43;3.00;;;5.70;99.90;;;;;;5052411;28;20220;-87
2022/01/30 06:39:46;;;;;;;14.87;2.90;;;5.70;99.90;;;;;;5052446;28;20178;-84
2022/01/30 06:42:12;;;;;;;15.47;3.17;;;5.70;99.90;;;;;;5052558;28;20327;-86
2022/01/30 06:44:38;;;;;;;20.87;4.33;;;5.60;99.90;;;;;;5052483;28;20236;-85
2022/01/30 06:47:05;;;;;;;17.37;3.50;;;5.60;99.90;;;;;;5051854;28;20220;-87
2022/01/30 06:49:30;;;;;;;15.53;3.60;;;5.70;99.90;;;;;;5054864;28;20420;-85
2022/01/30 06:51:56;;;;;;;18.50;4.23;;;5.70;99.90;;;;;;5056015;28;20438;-83
2022/01/30 06:54:21;;;;;;;19.13;3.53;;;5.80;99.90;;;;;;5055971;28;20181;-86
2022/01/30 06:56:47;;;;;;;24.37;4.13;;;5.80;99.90;;;;;;5055997;28;20614;-87
2022/01/30 06:59:12;;;;;;;17.43;3.60;;;5.80;99.90;;;;;;5055881;28;20586;-84
2022/01/30 07:01:38;;;;;;;18.37;3.73;;;5.80;99.90;;;;;;5055522;28;20166;-82
2022/01/30 07:04:03;;;;;;;14.60;3.17;;;5.90;99.90;;;;;;5055941;28;20255;-86
2022/01/30 07:06:30;;;;;;;22.53;3.87;;;5.80;99.90;;;;;;5055863;28;20241;-87
2022/01/30 07:08:55;;;;;;;18.67;4.80;;;5.90;99.90;;;;;;5055546;28;20221;-85
2022/01/30 07:11:21;;;;;;;22.67;4.10;;;5.90;99.90;;;;;;5055698;28;20821;-86
2022/01/30 07:13:47;;;;;;;13.77;3.77;;;5.90;99.90;;;;;;5037996;28;20190;-85
2022/01/30 07:16:15;;;;;;;19.67;6.03;;;5.70;99.90;;;;;;5055264;28;20181;-87
2022/01/30 07:18:41;;;;;;;16.10;3.80;;;5.70;99.90;;;;;;5055543;28;20404;-86
2022/01/30 07:21:09;;;;;;;23.00;4.53;;;5.70;99.90;;;;;;5037618;28;20911;-84
2022/01/30 07:23:37;;;;;;;20.03;4.50;;;5.60;99.90;;;;;;5055254;28;20943;-87
2022/01/30 07:26:03;;;;;;;17.37;7.07;;;5.60;99.90;;;;;;5055393;28;20912;-88
2022/01/30 07:28:29;;;;;;;19.73;3.63;;;5.60;99.90;;;;;;5055352;28;20408;-87
2022/01/30 07:30:55;;;;;;;11.73;3.30;;;5.70;99.90;;;;;;5054265;28;20170;-87
2022/01/30 07:33:21;;;;;;;20.87;5.17;;;5.60;99.90;;;;;;5055526;28;20469;-87
2022/01/30 07:35:46;;;;;;;23.97;4.30;;;5.60;99.90;;;;;;5055442;28;20173;-86
2022/01/30 07:38:13;;;;;;;12.37;3.23;;;5.70;99.90;;;;;;5055466;28;20174;-85
2022/01/30 07:40:39;;;;;;;21.63;4.10;;;5.80;99.90;;;;;;5054733;28;20169;-83
2022/01/30 07:43:05;;;;;;;22.60;4.00;;;5.80;99.90;;;;;;5036377;28;20840;-87
2022/01/30 07:45:30;;;;;;;31.80;5.90;;;5.90;99.90;;;;;;5055177;28;20603;-86
2022/01/30 07:47:56;;;;;;;23.60;4.67;;;5.90;99.90;;;;;;5054561;28;20235;-90
2022/01/30 07:50:21;;;;;;;15.13;4.00;;;5.90;99.90;;;;;;5055412;28;20181;-87
2022/01/30 07:52:47;;;;;;;20.93;5.87;;;6.00;99.90;;;;;;5055238;28;20169;-88
2022/01/30 07:55:12;;;;;;;26.30;4.80;;;6.00;99.90;;;;;;5055425;28;20664;-87
2022/01/30 07:57:38;;;;;;;27.27;5.10;;;6.00;99.90;;;;;;5055190;28;20510;-89
2022/01/30 08:00:04;;;;;;;16.93;4.37;;;6.00;99.90;;;;;;5054871;28;20248;-87
2022/01/30 08:02:30;;;;;;;23.30;4.33;;;6.00;99.90;;;;;;5054874;28;20273;-89
2022/01/30 08:04:55;;;;;;;21.00;4.47;;;6.10;99.90;;;;;;5055559;28;20546;-86
2022/01/30 08:07:21;;;;;;;28.20;5.10;;;6.10;99.90;;;;;;5055318;28;20167;-87
2022/01/30 08:09:47;;;;;;;31.60;5.60;;;6.10;99.90;;;;;;5055139;28;20259;-89
2022/01/30 08:12:12;;;;;;;22.50;4.10;;;6.10;99.90;;;;;;5055173;28;20242;-88
2022/01/30 08:14:38;;;;;;;24.53;3.97;;;6.10;99.90;;;;;;5055228;28;20165;-85
2022/01/30 08:17:04;;;;;;;27.60;6.60;;;6.10;99.90;;;;;;5055031;28;20177;-89
2022/01/30 08:19:29;;;;;;;28.80;5.47;;;6.10;99.90;;;;;;5055153;28;20185;-88
2022/01/30 08:21:57;;;;;;;20.63;5.87;;;6.10;99.90;;;;;;5054798;28;20177;-89
2022/01/30 08:24:24;;;;;;;22.13;5.30;;;6.10;99.90;;;;;;5036716;28;20215;-88
2022/01/30 08:26:50;;;;;;;27.83;4.80;;;6.10;99.90;;;;;;5054510;28;20920;-86
2022/01/30 08:29:15;;;;;;;26.07;5.30;;;6.20;99.90;;;;;;5054517;28;20516;-87
2022/01/30 08:31:41;;;;;;;28.83;5.90;;;6.20;99.90;;;;;;5054457;28;20468;-89
2022/01/30 08:34:06;;;;;;;21.10;4.70;;;6.20;99.90;;;;;;5054556;28;20158;-88
2022/01/30 08:36:32;;;;;;;30.03;6.47;;;6.20;99.90;;;;;;5054370;28;20172;-87
2022/01/30 08:38:58;;;;;;;21.40;4.87;;;6.20;99.90;;;;;;5054392;28;20177;-87
2022/01/30 08:41:23;;;;;;;18.50;5.20;;;6.20;99.90;;;;;;5054211;28;20170;-88
2022/01/30 08:43:49;;;;;;;18.83;3.97;;;6.30;99.90;;;;;;5054284;28;20206;-86
2022/01/30 08:46:15;;;;;;;19.30;3.60;;;6.30;99.90;;;;;;5053887;28;20234;-87
2022/01/30 08:48:40;;;;;;;22.37;4.20;;;6.30;99.90;;;;;;5054049;28;20172;-87
2022/01/30 08:51:06;;;;;;;31.13;4.93;;;6.30;99.90;;;;;;5054108;28;20421;-88
2022/01/30 08:53:32;;;;;;;19.60;5.03;;;6.30;99.90;;;;;;5054147;28;20209;-89
2022/01/30 08:55:57;;;;;;;27.73;6.27;;;6.40;99.90;;;;;;5054284;28;20165;-87
2022/01/30 08:58:22;;;;;;;21.90;5.10;;;6.40;99.90;;;;;;5053765;28;20182;-87
2022/01/30 09:00:48;;;;;;;15.53;3.30;;;6.40;99.90;;;;;;5053332;28;20219;-87
2022/01/30 09:03:14;;;;;;;19.20;4.87;;;6.40;99.90;;;;;;5053940;28;20209;-87
2022/01/30 09:05:39;;;;;;;20.23;4.10;;;6.40;99.90;;;;;;5053628;28;20180;-87
2022/01/30 09:08:07;;;;;;;16.00;3.90;;;6.40;99.90;;;;;;5053606;28;20228;-86
2022/01/30 09:10:33;;;;;;;17.77;4.13;;;6.40;99.90;;;;;;5053104;28;20265;-88
2022/01/30 09:12:59;;;;;;;23.37;4.23;;;6.40;99.90;;;;;;5053098;28;20420;-87
2022/01/30 09:15:25;;;;;;;21.97;3.53;;;6.40;99.90;;;;;;5053176;28;20420;-85
2022/01/30 09:17:56;;;;;;;19.27;4.87;;;6.40;99.90;;;;;;5053334;28;20884;-85
2022/01/30 09:20:21;;;;;;;22.00;5.17;;;6.30;99.90;;;;;;5053292;28;20203;-86
2022/01/30 09:22:48;;;;;;;19.20;4.00;;;6.30;99.90;;;;;;5053181;28;20474;-87
2022/01/30 09:25:13;;;;;;;27.90;5.53;;;6.30;99.90;;;;;;5054064;28;20297;-86
2022/01/30 09:27:39;;;;;;;28.67;7.30;;;6.30;99.90;;;;;;5054154;28;20419;-89
2022/01/30 09:30:07;;;;;;;28.17;6.23;;;6.40;99.90;;;;;;5055070;28;20174;-94
2022/01/30 09:32:33;;;;;;;21.73;3.90;;;6.40;99.90;;;;;;5059068;28;20170;-92
2022/01/30 09:34:58;;;;;;;23.83;4.27;;;6.50;99.90;;;;;;5061208;28;20431;-85
2022/01/30 09:37:24;;;;;;;20.70;4.67;;;6.70;99.90;;;;;;5040089;28;20409;-87
2022/01/30 09:39:49;;;;;;;16.43;4.43;;;6.80;99.90;;;;;;5055641;28;20181;-85
2022/01/30 09:42:16;;;;;;;25.37;4.37;;;6.80;99.90;;;;;;5056353;28;20200;-95
2022/01/30 09:44:43;;;;;;;19.40;4.77;;;6.80;99.90;;;;;;5057282;28;20244;-91
2022/01/30 09:47:11;;;;;;;19.73;4.43;;;6.80;99.90;;;;;;5055961;28;20991;-86
2022/01/30 09:49:39;;;;;;;17.07;5.30;;;6.80;99.90;;;;;;5037491;28;20428;-86
2022/01/30 09:52:06;;;;;;;19.20;5.03;;;6.90;99.90;;;;;;5038656;28;20505;-92
2022/01/30 09:54:32;;;;;;;26.77;6.10;;;7.00;99.90;;;;;;5056744;28;20429;-92
2022/01/30 09:56:58;;;;;;;20.80;4.23;;;7.20;99.90;;;;;;5056932;28;20416;-95
2022/01/30 09:59:23;;;;;;;26.23;4.97;;;7.40;99.90;;;;;;5057304;28;20422;-95
2022/01/30 10:01:49;;;;;;;25.77;4.50;;;7.20;99.90;;;;;;5056380;28;20696;-94
2022/01/30 10:04:14;;;;;;;24.87;4.87;;;7.40;99.90;;;;;;5056653;28;20206;-91
2022/01/30 10:07:00;;;;;;;15.77;4.07;;;7.40;99.90;;;;;;5057265;28;20177;-91
2022/01/30 10:09:29;;;;;;;22.63;4.10;;;7.40;99.90;;;;;;5056643;28;20288;-94
2022/01/30 10:12:13;;;;;;;24.40;6.30;;;7.20;99.90;;;;;;5037614;28;20414;-88
2022/01/30 10:15:08;;;;;;;19.83;4.70;;;7.10;99.90;;;;;;5037698;28;20433;-92
2022/01/30 10:17:36;;;;;;;23.70;5.20;;;7.00;99.90;;;;;;5055995;28;20411;-93
2022/01/30 10:20:04;;;;;;;18.10;4.30;;;7.00;99.90;;;;;;5039462;28;20499;-92
2022/01/30 10:22:30;;;;;;;24.80;4.17;;;7.00;99.90;;;;;;5056577;28;21033;-94
2022/01/30 10:24:57;;;;;;;25.07;4.50;;;7.00;99.90;;;;;;5058781;28;20555;-94
2022/01/30 10:27:25;;;;;;;18.87;4.30;;;6.90;99.90;;;;;;5041584;28;20266;-91
2022/01/30 10:30:06;;;;;;;17.10;3.73;;;7.00;99.90;;;;;;5040688;28;20428;-84
2022/01/30 10:32:33;;;;;;;18.60;4.27;;;7.10;99.90;;;;;;5039748;28;20420;-94
2022/01/30 10:35:02;;;;;;;14.47;4.33;;;7.30;99.90;;;;;;5057822;28;20417;-92
2022/01/30 10:37:28;;;;;;;25.43;4.70;;;7.20;99.90;;;;;;5039765;28;20417;-92
2022/01/30 10:40:09;;;;;;;25.60;7.10;;;7.30;99.90;;;;;;5057439;28;20436;-93
2022/01/30 10:42:38;;;;;;;15.07;3.50;;;7.50;99.90;;;;;;5057618;28;20381;-92
2022/01/30 10:45:15;;;;;;;25.23;4.80;;;7.50;99.90;;;;;;5057102;28;20465;-93
2022/01/30 10:47:43;;;;;;;28.57;4.63;;;7.40;99.90;;;;;;5039884;28;20435;-92
2022/01/30 10:50:19;;;;;;;20.53;4.00;;;7.30;99.90;;;;;;5030240;28;20446;-90
2022/01/30 10:52:59;;;;;;;22.67;4.70;;;7.50;99.90;;;;;;5038945;28;20431;-91
2022/01/30 10:55:43;;;;;;;17.50;4.40;;;8.10;99.90;;;;;;5045951;28;20419;-91
2022/01/30 10:58:12;;;;;;;25.27;7.87;;;8.40;99.90;;;;;;5019290;28;20430;-88
2022/01/30 11:00:39;;;;;;;18.17;3.10;;;8.90;97.00;;;;;;5018935;28;20438;-88
2022/01/30 11:03:05;;;;;;;18.97;5.07;;;8.30;98.80;;;;;;5019020;28;21244;-94
2022/01/30 11:05:34;;;;;;;21.67;5.20;;;8.10;99.50;;;;;;5055595;28;20427;-92
2022/01/30 11:07:59;;;;;;;23.60;5.13;;;8.80;99.50;;;;;;5056363;28;20841;-92
2022/01/30 11:10:27;;;;;;;22.50;4.70;;;8.60;98.80;;;;;;5057962;28;20407;-91
2022/01/30 11:13:07;;;;;;;22.03;5.30;;;8.10;99.40;;;;;;5056556;28;20175;-88
2022/01/30 11:15:37;;;;;;;33.07;6.17;;;8.00;99.90;;;;;;5056168;28;20488;-84
2022/01/30 11:18:04;;;;;;;17.07;3.23;;;8.00;99.90;;;;;;5056596;28;20425;-91
2022/01/30 11:20:32;;;;;;;20.97;4.27;;;9.10;99.20;;;;;;5056220;28;20465;-88
2022/01/30 11:23:01;;;;;;;17.83;4.03;;;8.50;98.90;;;;;;5056355;28;20403;-91
2022/01/30 11:25:33;;;;;;;21.67;6.63;;;8.00;99.90;;;;;;5056076;28;20422;-93
2022/01/30 11:28:02;;;;;;;21.23;5.70;;;7.90;99.90;;;;;;5056587;28;20402;-91
2022/01/30 11:30:31;;;;;;;27.53;5.20;;;7.90;99.90;;;;;;5051033;28;20969;-83
2022/01/30 11:32:58;;;;;;;21.53;2.97;;;7.90;99.90;;;;;;5055745;28;20411;-89
2022/01/30 11:35:23;;;;;;;23.57;4.87;;;8.00;99.50;;;;;;5037872;28;20774;-92
2022/01/30 11:37:50;;;;;;;20.83;4.80;;;7.80;99.20;;;;;;5049471;28;20438;-91
2022/01/30 11:40:18;;;;;;;17.00;3.53;;;7.80;99.30;;;;;;5054818;28;20175;-93
2022/01/30 11:42:49;;;;;;;24.63;6.03;;;8.20;98.90;;;;;;5056318;28;20422;-84
2022/01/30 11:45:27;;;;;;;15.93;4.63;;;8.70;97.40;;;;;;5055614;28;20478;-91
2022/01/30 11:47:55;;;;;;;20.80;3.40;;;8.20;98.50;;;;;;5056922;28;20460;-93
2022/01/30 11:50:28;;;;;;;17.33;4.60;;;8.20;99.00;;;;;;5057226;28;20828;-90
2022/01/30 11:52:55;;;;;;;19.20;5.37;;;8.10;99.10;;;;;;5056928;28;20497;-92
2022/01/30 11:55:56;;;;;;;25.47;4.63;;;8.20;99.60;;;;;;5056103;28;20918;-81
2022/01/30 11:58:33;;;;;;;15.53;3.27;;;7.90;99.70;;;;;;5056191;28;20410;-92
2022/01/30 12:01:01;;;;;;;15.07;3.90;;;8.30;98.90;;;;;;5055688;28;20426;-92
2022/01/30 12:03:28;;;;;;;19.53;4.13;;;8.90;97.20;;;;;;5056052;28;20445;-93
2022/01/30 12:05:56;;;;;;;15.57;2.97;;;8.40;97.80;;;;;;5038461;28;20426;-93
2022/01/30 12:08:48;;;;;;;18.40;3.73;;;8.10;98.00;;;;;;5039996;28;20476;-91
2022/01/30 12:11:39;;;;;;;22.00;4.10;;;8.20;98.40;;;;;;5058571;28;20773;-94
2022/01/30 12:14:42;;;;;;;21.30;5.67;;;8.50;98.50;;;;;;5038032;28;20781;-87
2022/01/30 12:17:08;;;;;;;19.60;4.10;;;8.10;98.10;;;;;;5043481;28;20453;-85
2022/01/30 12:19:33;;;;;;;23.63;4.20;;;8.10;98.90;;;;;;5051847;28;20454;-88
2022/01/30 12:22:20;;;;;;;27.93;5.43;;;8.00;99.00;;;;;;5035862;28;20510;-85
2022/01/30 12:24:48;;;;;;;16.07;4.10;;;8.00;99.20;;;;;;5042644;28;20637;-81
2022/01/30 12:27:14;;;;;;;14.80;4.30;;;8.70;99.30;;;;;;5053734;28;20767;-81
2022/01/30 12:29:45;;;;;;;11.17;3.07;;;10.10;95.00;;;;;;5053230;28;20901;-80
2022/01/30 12:32:20;;;;;;;16.83;3.40;;;8.80;95.80;;;;;;5053623;28;20404;-81
2022/01/30 12:34:46;;;;;;;32.47;5.33;;;9.20;95.60;;;;;;5053431;28;20408;-80
2022/01/30 12:37:19;;;;;;;16.63;3.67;;;9.30;95.70;;;;;;5035510;28;20417;-80
2022/01/30 12:39:45;;;;;;;11.70;2.60;;;9.10;96.50;;;;;;5053357;28;20491;-81
2022/01/30 12:42:15;;;;;;;14.03;3.27;;;9.90;94.80;;;;;;5053341;28;20628;-81
2022/01/30 12:44:42;;;;;;;13.90;4.10;;;10.30;95.10;;;;;;5052915;28;20253;-80
2022/01/30 12:47:07;;;;;;;13.13;4.00;;;9.30;94.90;;;;;;5052521;28;20813;-80
2022/01/30 12:49:40;;;;;;;22.03;4.07;;;8.60;97.80;;;;;;5053318;28;20498;-80
2022/01/30 12:52:10;;;;;;;13.13;4.00;;;8.80;98.40;;;;;;5035437;28;20199;-80
2022/01/30 12:54:39;;;;;;;25.10;4.50;;;8.30;99.20;;;;;;5053289;28;20906;-80
2022/01/30 12:57:06;;;;;;;22.03;3.80;;;8.00;99.70;;;;;;5053336;28;20415;-80
2022/01/30 12:59:31;;;;;;;18.10;4.33;;;7.90;99.90;;;;;;5053008;28;20418;-80
2022/01/30 13:02:09;;;;;;;20.07;3.50;;;8.00;99.90;;;;;;5053091;28;20414;-80
2022/01/30 13:04:36;;;;;;;17.97;5.17;;;8.40;98.90;;;;;;5053011;28;20218;-80
2022/01/30 13:07:03;;;;;;;12.83;3.30;;;8.10;98.50;;;;;;5053076;28;20414;-80
2022/01/30 13:09:33;;;;;;;10.47;2.53;;;8.00;99.30;;;;;;5052608;28;20949;-81
2022/01/30 13:12:11;;;;;;;16.20;4.83;;;8.00;98.70;;;;;;5053015;28;20411;-81
2022/01/30 13:14:38;;;;;;;16.67;4.23;;;7.90;98.30;;;;;;5052637;28;20413;-80
2022/01/30 13:17:05;;;;;;;19.13;4.13;;;7.70;98.00;;;;;;5052919;28;20449;-80
2022/01/30 13:19:32;;;;;;;17.53;4.03;;;7.40;98.70;;;;;;5052970;28;20421;-80
2022/01/30 13:21:58;;;;;;;28.60;4.20;;;7.10;99.00;;;;;;5052899;28;20413;-80
2022/01/30 13:24:25;;;;;;;16.13;2.57;;;6.90;99.90;;;;;;5052814;28;20474;-80
2022/01/30 13:27:03;;;;;;;11.93;2.33;;;6.80;99.90;;;;;;5052830;28;20752;-80
2022/01/30 13:29:33;;;;;;;12.33;2.13;;;6.70;99.60;;;;;;5055136;28;20413;-81
2022/01/30 13:32:00;;;;;;;22.17;5.23;;;6.70;99.30;;;;;;5052649;28;20419;-80
2022/01/30 13:34:30;;;;;;;15.53;4.03;;;6.70;99.20;;;;;;5052729;28;20559;-80
2022/01/30 13:37:10;;;;;;;20.50;4.40;;;6.80;99.40;;;;;;5052647;28;20421;-80
2022/01/30 13:39:46;;;;;;;12.90;2.73;;;7.10;98.90;;;;;;5052720;28;20436;-80
2022/01/30 13:48:06;;;;;;;15.87;2.80;;;7.10;99.90;;;;;;5048238;28;20424;-80
2022/01/30 13:50:35;;;;;;;9.37;2.73;;;7.10;99.90;;;;;;5045580;28;20424;-81